Time;durP1;ratioP1;P1;durP2;ratioP2;P2;SDS_P1;SDS_P2;PMS_P1;PMS_P2;Temp;Humidity;BMP_temperature;BMP_pressure;BME280_temperature;BME280_humidity;BME280_pressure;Samples;Min_cycle;Max_cycle;Signal;HPM_P1;HPM_P2
2022/05/04 00:01:33;;;;;;;;;33.00;27.25;;;;;15.26;54.85;101239.03;5032513;28;45450;-51
2022/05/04 00:03:58;;;;;;;;;26.25;25.75;;;;;15.30;54.87;101243.03;5064103;28;46115;-49
2022/05/04 00:06:24;;;;;;;;;25.50;23.00;;;;;15.36;54.30;101246.78;5032385;28;45856;-49
2022/05/04 00:08:49;;;;;;;;;31.00;25.75;;;;;15.28;54.06;101220.28;5031850;28;45510;-49
2022/05/04 00:11:15;;;;;;;;;30.50;27.00;;;;;15.44;53.81;101236.25;5032130;28;45947;-50
2022/05/04 00:13:40;;;;;;;;;28.75;25.50;;;;;15.46;54.26;101241.53;5031532;28;45877;-56
2022/05/04 00:16:06;;;;;;;;;28.25;26.00;;;;;15.45;53.90;101237.09;5030701;28;45437;-50
2022/05/04 00:18:32;;;;;;;;;28.25;24.75;;;;;15.39;54.31;101233.34;5032140;28;45398;-47
2022/05/04 00:20:57;;;;;;;;;32.50;26.50;;;;;15.43;54.10;101233.72;5031115;28;45565;-48
2022/05/04 00:23:23;;;;;;;;;29.25;25.25;;;;;15.47;53.98;101226.63;5063817;28;45768;-54
2022/05/04 00:25:49;;;;;;;;;28.00;23.60;;;;;15.40;54.02;101229.50;5031543;28;45417;-54
2022/05/04 00:28:14;;;;;;;;;29.00;23.50;;;;;15.39;54.05;101224.19;5031839;28;45488;-51
2022/05/04 00:30:40;;;;;;;;;26.25;24.25;;;;;15.43;54.19;101217.13;5031857;28;45351;-48
2022/05/04 00:33:05;;;;;;;;;28.25;24.25;;;;;15.27;54.75;101213.91;5030191;28;47482;-49
2022/05/04 00:35:31;;;;;;;;;30.50;24.00;;;;;15.20;54.79;101215.09;5030147;28;45492;-53
2022/05/04 00:37:56;;;;;;;;;26.00;22.50;;;;;14.98;54.80;101177.69;5047942;27;45411;-50
2022/05/04 00:40:22;;;;;;;;;30.25;26.75;;;;;15.15;54.70;101208.31;5029917;28;45710;-50
2022/05/04 00:42:47;;;;;;;;;25.25;22.50;;;;;15.16;54.88;101211.94;5065401;28;46148;-49
2022/05/04 00:45:13;;;;;;;;;32.75;28.00;;;;;15.20;54.66;101213.16;5035345;28;45486;-48
2022/05/04 00:47:38;;;;;;;;;29.75;27.75;;;;;15.10;54.64;101212.88;5000762;28;45492;-48
2022/05/04 00:50:05;;;;;;;;;29.75;24.50;;;;;14.89;54.31;101176.31;5035286;28;45543;-48
2022/05/04 00:52:31;;;;;;;;;35.00;30.60;;;;;15.12;54.53;101216.22;5051031;28;48441;-47
2022/05/04 00:54:57;;;;;;;;;37.20;29.20;;;;;14.96;54.28;101179.00;5050505;28;45285;-47
2022/05/04 00:58:54;;;;;;;;;39.00;28.75;;;;;14.87;54.69;101195.88;5068068;28;45582;-46
2022/05/04 01:00:08;;;;;;;;;35.80;31.00;;;;;14.90;55.24;101225.81;5035388;28;45543;-50
2022/05/04 01:02:34;;;;;;;;;30.60;29.40;;;;;14.96;54.88;101225.97;5035357;28;47515;-51
2022/05/04 01:04:59;;;;;;;;;36.00;30.50;;;;;14.90;55.30;101230.50;5034175;28;45766;-46
2022/05/04 01:07:25;;;;;;;;;36.50;27.25;;;;;14.80;56.08;101232.94;5035281;28;45435;-48
2022/05/04 01:09:50;;;;;;;;;25.00;23.00;;;;;14.59;56.01;101190.84;5035687;28;45280;-48
2022/05/04 01:12:16;;;;;;;;;27.75;25.75;;;;;14.83;55.28;101229.75;5035053;28;45254;-49
2022/05/04 01:14:41;;;;;;;;;36.00;31.25;;;;;14.87;55.33;101219.91;5033939;28;45437;-48
2022/05/04 01:17:07;;;;;;;;;33.75;24.25;;;;;14.73;55.69;101211.72;5035654;28;45728;-49
2022/05/04 01:19:32;;;;;;;;;33.25;27.25;;;;;14.36;55.66;101164.72;5067487;28;45479;-47
2022/05/04 01:21:58;;;;;;;;;33.25;28.00;;;;;14.69;55.91;101220.69;5066919;28;45418;-47
2022/05/04 01:24:23;;;;;;;;;31.25;27.75;;;;;14.73;55.22;101217.25;5034665;28;45446;-48
2022/05/04 01:26:49;;;;;;;;;28.50;22.50;;;;;14.72;55.63;101214.72;5035446;28;45417;-48
2022/05/04 01:29:14;;;;;;;;;35.25;28.75;;;;;14.59;55.87;101221.22;5035304;28;45503;-46
2022/05/04 01:31:40;;;;;;;;;36.75;28.25;;;;;14.47;56.07;101227.47;5034832;28;46432;-52
2022/05/04 01:34:06;;;;;;;;;29.00;28.00;;;;;14.55;56.43;101222.75;5035117;28;45487;-53
2022/05/04 01:36:31;;;;;;;;;30.50;26.25;;;;;14.48;56.45;101218.13;5034742;28;45271;-51
2022/05/04 01:38:57;;;;;;;;;30.00;26.50;;;;;14.59;55.91;101224.84;5035299;28;45389;-46
2022/05/04 01:44:06;;;;;;;;;32.40;31.00;;;;;14.47;56.16;101223.88;5034778;28;45316;-47
2022/05/04 01:46:32;;;;;;;;;29.50;26.75;;;;;14.52;55.82;101214.91;5056458;27;45365;-51
2022/05/04 01:48:58;;;;;;;;;28.00;24.50;;;;;14.66;55.64;101219.25;5054127;28;45227;-49
2022/05/04 01:51:23;;;;;;;;;28.75;28.75;;;;;14.57;55.69;101188.28;5051340;28;46331;-49
2022/05/04 01:53:49;;;;;;;;;28.50;26.00;;;;;14.79;55.71;101212.78;5054782;28;45207;-48
2022/05/04 01:56:14;;;;;;;;;44.25;31.00;;;;;14.84;55.06;101212.91;5053464;28;45314;-50
2022/05/04 01:58:40;;;;;;;;;36.75;29.75;;;;;14.81;55.40;101207.00;5053906;28;45235;-46
2022/05/04 02:01:06;;;;;;;;;30.60;29.00;;;;;14.80;55.46;101213.59;5054704;28;45320;-51
2022/05/04 02:03:31;;;;;;;;;33.25;28.25;;;;;14.81;55.32;101216.16;5055070;28;45388;-50
2022/05/04 02:05:57;;;;;;;;;33.25;26.75;;;;;14.77;55.27;101207.47;5053634;28;45357;-52
2022/05/04 02:08:22;;;;;;;;;35.50;27.75;;;;;14.49;55.65;101178.41;5054372;28;45445;-47
2022/05/04 02:10:48;;;;;;;;;28.50;26.50;;;;;14.74;55.77;101218.97;5053414;28;46699;-50
2022/05/04 02:13:14;;;;;;;;;26.50;25.25;;;;;14.63;55.79;101219.72;5054784;28;45323;-49
2022/05/04 02:15:39;;;;;;;;;32.25;30.25;;;;;14.48;55.78;101209.84;5054920;28;45368;-48
2022/05/04 02:18:05;;;;;;;;;31.25;30.75;;;;;14.35;56.03;101197.00;5054251;28;45638;-49
2022/05/04 02:20:30;;;;;;;;;35.75;29.00;;;;;14.55;55.94;101217.22;5053594;28;45354;-51
2022/05/04 02:22:56;;;;;;;;;33.25;31.75;;;;;14.58;56.08;101219.53;5054645;28;45450;-48
2022/05/04 02:25:21;;;;;;;;;32.25;31.25;;;;;13.80;56.35;101106.59;5053706;28;45412;-47
2022/05/04 02:27:47;;;;;;;;;37.75;30.50;;;;;14.43;56.59;101217.97;5054440;28;45352;-51
2022/05/04 02:30:13;;;;;;;;;31.00;28.00;;;;;14.47;56.65;101210.09;5054608;28;45396;-48
2022/05/04 02:32:39;;;;;;;;;33.80;28.20;;;;;14.26;56.60;101208.56;5035305;28;45426;-46
2022/05/04 02:37:57;;;;;;;;;33.40;32.20;;;;;14.24;56.70;101208.78;5038061;28;45149;-50
2022/05/04 02:40:23;;;;;;;;;36.20;28.60;;;;;14.36;56.63;101217.19;5036335;28;45835;-50
2022/05/04 02:42:48;;;;;;;;;33.60;30.40;;;;;14.37;56.37;101208.66;5037953;28;45405;-48
2022/05/04 02:45:17;;;;;;;;;32.75;30.25;;;;;14.44;55.82;101214.13;5037939;28;45335;-47
2022/05/04 02:47:42;;;;;;;;;31.60;27.00;;;;;14.42;56.21;101219.06;5037035;28;45930;-47
2022/05/04 02:50:08;;;;;;;;;39.50;33.75;;;;;14.34;56.56;101216.56;5037600;28;46246;-48
2022/05/04 02:52:33;;;;;;;;;32.75;27.50;;;;;14.28;56.29;101193.47;5037936;28;45431;-52
2022/05/04 02:54:59;;;;;;;;;34.25;30.25;;;;;13.98;56.07;101151.91;5070105;28;45383;-49
2022/05/04 02:57:24;;;;;;;;;33.00;30.50;;;;;14.20;56.44;101200.09;5038056;28;45485;-47
2022/05/04 02:59:50;;;;;;;;;41.00;34.50;;;;;14.20;56.64;101197.34;5037420;28;45540;-47
2022/05/04 03:02:27;;;;;;;;;37.75;31.00;;;;;14.16;56.92;101195.25;5037077;28;45410;-49
2022/05/04 03:05:01;;;;;;;;;36.40;32.60;;;;;14.22;56.64;101200.75;5037513;28;45353;-47
2022/05/04 03:07:26;;;;;;;;;40.80;34.60;;;;;14.17;55.75;101174.88;5069610;28;45358;-49
2022/05/04 03:09:53;;;;;;;;;55.75;41.00;;;;;14.33;56.40;101198.31;5069669;28;46847;-50
2022/05/04 03:12:19;;;;;;;;;37.60;33.20;;;;;14.25;56.56;101193.06;5036956;28;45273;-48
2022/05/04 03:14:44;;;;;;;;;56.00;42.50;;;;;14.25;56.66;101191.13;5037300;28;45173;-47
2022/05/04 03:17:10;;;;;;;;;55.50;45.00;;;;;14.28;56.60;101195.38;5037451;28;45208;-51
2022/05/04 03:19:35;;;;;;;;;72.50;53.25;;;;;14.22;56.56;101195.22;5037065;28;45654;-47
2022/05/04 03:22:01;;;;;;;;;68.00;52.25;;;;;14.07;57.00;101194.69;5037024;28;45362;-50
2022/05/04 03:24:26;;;;;;;;;61.00;49.00;;;;;13.96;57.39;101171.44;5035574;28;45548;-49
2022/05/04 03:26:52;;;;;;;;;57.50;47.50;;;;;14.01;56.96;101190.06;5037249;28;45582;-50
2022/05/04 03:29:17;;;;;;;;;61.50;46.25;;;;;13.91;56.52;101158.31;5035472;28;46595;-49
2022/05/04 03:31:43;;;;;;;;;59.50;45.25;;;;;14.12;56.37;101197.63;5036537;28;45456;-48
2022/05/04 03:34:08;;;;;;;;;58.50;44.25;;;;;14.16;56.83;101193.38;5037080;28;45366;-48
2022/05/04 03:36:37;;;;;;;;;56.75;46.50;;;;;14.00;56.75;101188.38;5036826;28;45417;-48
2022/05/04 03:39:04;;;;;;;;;55.40;43.20;;;;;13.94;57.35;101190.13;5035507;28;46477;-50
2022/05/04 03:41:29;;;;;;;;;57.60;45.80;;;;;13.85;57.77;101175.75;5036491;28;45377;-52
2022/05/04 03:43:54;;;;;;;;;51.50;42.50;;;;;13.85;57.40;101199.72;5036145;28;45392;-53
2022/05/04 03:46:26;;;;;;;;;42.25;36.00;;;;;13.89;57.25;101185.28;5036691;28;45282;-50
2022/05/04 03:48:52;;;;;;;;;43.40;37.20;;;;;13.95;56.96;101187.16;5036523;28;46672;-48
2022/05/04 03:51:21;;;;;;;;;43.00;32.80;;;;;13.64;57.22;101130.94;5036148;28;45410;-50
2022/05/04 03:53:51;;;;;;;;;29.40;24.40;;;;;13.92;56.80;101192.25;5036849;28;45438;-48
2022/05/04 03:56:16;;;;;;;;;43.80;35.80;;;;;13.52;57.42;101152.00;5036804;28;45338;-51
2022/05/04 03:58:42;;;;;;;;;33.00;29.75;;;;;13.75;57.33;101191.94;5018498;28;47532;-52
2022/05/04 04:01:08;;;;;;;;;40.25;34.50;;;;;13.67;57.91;101195.84;5036475;28;45774;-50
2022/05/04 04:03:34;;;;;;;;;34.75;31.00;;;;;13.69;57.33;101186.28;5036379;28;45211;-47
2022/05/04 04:05:59;;;;;;;;;42.25;33.75;;;;;13.68;57.75;101184.56;5037130;28;45311;-52
2022/05/04 04:08:25;;;;;;;;;34.75;27.50;;;;;13.71;57.23;101176.94;5036214;28;46145;-49
2022/05/04 04:10:50;;;;;;;;;38.00;33.25;;;;;13.66;57.34;101183.13;5036364;28;45324;-48
2022/05/04 04:13:16;;;;;;;;;38.50;32.50;;;;;13.00;57.87;101070.22;5036587;28;45312;-50
2022/05/04 04:15:42;;;;;;;;;34.75;29.00;;;;;13.72;57.32;101178.59;5036586;28;45778;-48
2022/05/04 04:18:08;;;;;;;;;34.25;28.00;;;;;13.78;56.87;101172.19;5036669;28;45607;-48
2022/05/04 04:23:18;;;;;;;;;41.80;33.00;;;;;13.79;57.12;101187.69;5036519;28;45490;-47
2022/05/04 04:25:43;;;;;;;;;41.00;29.25;;;;;13.78;57.34;101188.75;5036480;28;45674;-47
2022/05/04 04:28:09;;;;;;;;;41.50;33.25;;;;;13.82;57.22;101187.22;5034888;28;45350;-49
2022/05/04 04:30:37;;;;;;;;;38.40;34.20;;;;;13.71;57.13;101196.22;5035880;28;45405;-50
2022/05/04 04:33:02;;;;;;;;;41.60;32.20;;;;;13.56;57.80;101186.34;5036355;28;45358;-49
2022/05/04 04:35:28;;;;;;;;;41.00;33.00;;;;;13.64;57.71;101197.13;5063049;28;45297;-52
2022/05/04 04:37:53;;;;;;;;;39.75;34.50;;;;;13.62;58.09;101203.91;5043992;28;45850;-47
2022/05/04 04:40:19;;;;;;;;;37.50;33.00;;;;;13.65;57.77;101187.78;5053683;28;45301;-46
2022/05/04 04:42:44;;;;;;;;;36.25;29.50;;;;;13.66;57.71;101188.63;5053397;28;45315;-49
2022/05/04 04:45:10;;;;;;;;;37.25;33.50;;;;;13.75;57.34;101191.94;5056812;28;46011;-50
2022/05/04 04:47:36;;;;;;;;;42.00;37.00;;;;;13.84;57.14;101198.91;5056188;28;46504;-49
2022/05/04 04:50:01;;;;;;;;;43.25;34.75;;;;;13.77;57.27;101195.34;5056053;28;45249;-49
2022/05/04 04:52:27;;;;;;;;;29.50;26.25;;;;;13.74;57.54;101191.13;5055977;28;45412;-49
2022/05/04 04:54:52;;;;;;;;;44.00;33.00;;;;;13.48;57.38;101148.84;5055915;28;45348;-50
2022/05/04 04:57:18;;;;;;;;;40.25;31.00;;;;;13.80;57.23;101195.75;5053133;28;48844;-48
2022/05/04 04:59:43;;;;;;;;;39.25;30.50;;;;;13.63;57.55;101180.78;5055333;28;45302;-50
2022/05/04 05:02:09;;;;;;;;;38.00;29.25;;;;;13.82;57.44;101209.28;5055673;28;45363;-49
2022/05/04 05:04:35;;;;;;;;;34.00;26.60;;;;;13.83;57.50;101203.56;5055948;28;45568;-47
2022/05/04 05:07:00;;;;;;;;;34.50;29.00;;;;;13.76;57.17;101185.38;5055248;28;45646;-51
2022/05/04 05:09:26;;;;;;;;;35.75;30.75;;;;;13.85;57.02;101200.59;5037660;28;45429;-53
2022/05/04 05:11:51;;;;;;;;;32.25;31.00;;;;;13.85;57.44;101206.09;5055250;28;45432;-48
2022/05/04 05:17:01;;;;;;;;;39.60;34.80;;;;;13.68;57.40;101216.81;5053878;28;45483;-48
2022/05/04 05:19:26;;;;;;;;;33.00;30.00;;;;;13.43;57.42;101148.63;5055512;28;45349;-47
2022/05/04 05:21:52;;;;;;;;;37.00;30.25;;;;;13.67;56.94;101177.34;5054073;28;45207;-48
2022/05/04 05:24:17;;;;;;;;;40.25;30.00;;;;;13.87;57.11;101217.75;5054507;28;45381;-47
2022/05/04 05:26:43;;;;;;;;;34.00;31.00;;;;;13.93;57.08;101205.00;5055061;28;45975;-49
2022/05/04 05:29:08;;;;;;;;;35.75;31.75;;;;;14.02;56.75;101211.94;5053541;28;45341;-48
2022/05/04 05:31:34;;;;;;;;;36.00;31.25;;;;;14.05;56.82;101224.44;5046105;28;45323;-48
2022/05/04 05:33:59;;;;;;;;;41.25;31.75;;;;;14.07;56.33;101214.00;5035321;28;45624;-45
2022/05/04 05:36:25;;;;;;;;;38.50;32.00;;;;;14.13;56.32;101218.63;5034865;28;45356;-51
2022/05/04 05:38:50;;;;;;;;;35.00;30.75;;;;;13.92;56.24;101179.31;5035086;28;45350;-49
2022/05/04 05:41:16;;;;;;;;;37.00;32.00;;;;;14.18;56.08;101224.34;5034689;28;45379;-51
2022/05/04 05:43:41;;;;;;;;;33.50;31.75;;;;;14.18;56.19;101229.00;5035305;28;45578;-46
2022/05/04 05:46:07;;;;;;;;;39.25;33.25;;;;;13.92;56.09;101189.50;5034754;28;45446;-51
2022/05/04 05:48:32;;;;;;;;;39.75;34.00;;;;;14.12;55.87;101221.63;5034741;28;45458;-51
2022/05/04 05:51:04;;;;;;;;;36.50;32.00;;;;;13.92;55.73;101181.22;5035175;28;45369;-52
2022/05/04 05:53:29;;;;;;;;;34.40;31.00;;;;;14.15;55.82;101222.00;5035346;28;45224;-50
2022/05/04 05:55:55;;;;;;;;;33.25;31.75;;;;;14.20;56.27;101233.22;5034881;28;46350;-49
2022/05/04 05:58:20;;;;;;;;;35.50;31.75;;;;;14.14;55.61;101225.84;5034728;28;45341;-53
2022/05/04 06:00:46;;;;;;;;;37.50;29.75;;;;;14.14;56.05;101227.78;5034824;28;45334;-47
2022/05/04 06:03:13;;;;;;;;;35.50;33.00;;;;;14.20;56.26;101229.63;5034716;28;45538;-49
2022/05/04 06:05:39;;;;;;;;;37.00;32.80;;;;;14.17;56.11;101233.69;5035016;28;47065;-48
2022/05/04 06:08:05;;;;;;;;;33.20;29.60;;;;;14.23;55.92;101241.06;5035126;28;45465;-47
2022/05/04 06:10:30;;;;;;;;;26.75;23.50;;;;;14.26;55.49;101236.16;5038514;28;45410;-50
2022/05/04 06:12:56;;;;;;;;;38.00;32.00;;;;;14.23;55.68;101235.56;5037415;28;45459;-48
2022/05/04 06:15:21;;;;;;;;;36.25;31.75;;;;;14.28;55.54;101236.78;5037983;28;45576;-49
2022/05/04 06:17:47;;;;;;;;;35.75;28.00;;;;;14.05;55.48;101196.84;5038389;28;45219;-47
2022/05/04 06:20:13;;;;;;;;;37.25;30.75;;;;;14.20;55.07;101233.22;5070749;28;45395;-45
2022/05/04 06:22:38;;;;;;;;;43.25;32.75;;;;;14.27;55.51;101248.91;5038402;28;45440;-49
2022/05/04 06:25:04;;;;;;;;;36.50;31.50;;;;;14.16;55.60;101247.72;5038183;28;45427;-50
2022/05/04 06:27:30;;;;;;;;;33.50;30.75;;;;;14.11;55.85;101256.66;5043792;27;45356;-52
2022/05/04 06:35:24;;;;;;;;;33.20;30.40;;;;;14.02;55.15;101219.34;5036843;28;45335;-49
2022/05/04 06:37:49;;;;;;;;;46.50;36.00;;;;;14.17;55.66;101254.91;5034378;28;45359;-48
2022/05/04 06:40:15;;;;;;;;;35.75;32.50;;;;;14.18;55.21;101254.69;5037956;28;45361;-49
2022/05/04 06:42:40;;;;;;;;;39.00;33.00;;;;;14.02;56.15;101247.81;5038145;28;45778;-49
2022/05/04 06:45:06;;;;;;;;;27.00;21.25;;;;;14.07;55.43;101255.41;5038153;28;45744;-47
2022/05/04 06:47:33;;;;;;;;;39.00;30.75;;;;;14.12;55.65;101257.50;5037434;28;45643;-47
2022/05/04 06:49:59;;;;;;;;;34.00;31.60;;;;;14.21;55.59;101265.28;5037927;28;45876;-47
2022/05/04 06:52:25;;;;;;;;;44.60;33.60;;;;;14.11;55.29;101226.31;5037868;28;45608;-47
2022/05/04 06:54:51;;;;;;;;;39.80;33.60;;;;;14.23;55.45;101249.38;5037524;28;46257;-50
2022/05/04 06:57:17;;;;;;;;;30.50;26.75;;;;;14.35;55.04;101262.41;5036694;28;45326;-50
2022/05/04 06:59:43;;;;;;;;;31.50;22.00;;;;;14.19;55.07;101227.97;5037286;28;45609;-54
2022/05/04 07:02:08;;;;;;;;;34.25;32.00;;;;;14.28;55.14;101243.16;5036347;28;45314;-49
2022/05/04 07:04:34;;;;;;;;;33.75;29.75;;;;;14.19;55.25;101247.28;5035743;28;46916;-47
2022/05/04 07:06:59;;;;;;;;;43.50;33.50;;;;;14.16;55.92;101256.84;5036295;28;45352;-49
2022/05/04 07:09:25;;;;;;;;;44.50;36.25;;;;;13.94;55.00;101190.97;5037596;28;45366;-47
2022/05/04 07:11:50;;;;;;;;;41.75;35.00;;;;;14.21;54.50;101223.03;5035789;28;45348;-52
2022/05/04 07:14:16;;;;;;;;;32.25;28.75;;;;;14.48;54.42;101261.47;5037155;28;45555;-48
2022/05/04 07:16:42;;;;;;;;;48.75;35.00;;;;;14.28;54.79;101243.16;5036837;28;45335;-48
2022/05/04 07:19:07;;;;;;;;;34.75;33.00;;;;;14.45;54.71;101248.09;5036265;28;45716;-51
2022/05/04 07:21:33;;;;;;;;;52.50;36.00;;;;;14.60;54.62;101269.88;5019341;28;45559;-48
2022/05/04 07:23:58;;;;;;;;;41.75;34.50;;;;;14.69;54.16;101270.44;5036602;28;46115;-50
2022/05/04 07:26:24;;;;;;;;;42.25;35.00;;;;;14.73;54.27;101269.75;5035544;28;45275;-52
2022/05/04 07:28:49;;;;;;;;;42.75;35.50;;;;;14.76;54.21;101265.72;5036605;28;45417;-51
2022/05/04 07:31:15;;;;;;;;;34.00;25.50;;;;;14.80;54.34;101266.97;5037160;28;45329;-51
2022/05/04 07:33:40;;;;;;;;;40.50;33.50;;;;;14.85;54.05;101269.91;5068901;28;48553;-47
2022/05/04 07:36:06;;;;;;;;;39.25;33.75;;;;;14.90;53.63;101280.25;5068862;28;45365;-48
2022/05/04 07:38:31;;;;;;;;;37.50;33.50;;;;;14.81;54.53;101281.59;5036685;28;45532;-53
2022/05/04 07:43:41;;;;;;;;;44.20;34.40;;;;;14.73;53.80;101255.94;5036622;28;45694;-50
2022/05/04 07:46:06;;;;;;;;;40.50;34.50;;;;;14.79;54.30;101267.19;5036570;28;45354;-53
2022/05/04 07:48:32;;;;;;;;;38.50;32.75;;;;;14.95;53.84;101287.84;5036756;28;45304;-53
2022/05/04 07:50:58;;;;;;;;;45.25;34.75;;;;;15.02;53.68;101280.34;5036429;28;45584;-53
2022/05/04 07:53:23;;;;;;;;;40.50;35.00;;;;;15.04;53.29;101284.56;5036491;28;46232;-51
2022/05/04 07:55:49;;;;;;;;;40.75;35.00;;;;;15.04;53.54;101286.47;5036587;28;45200;-49
2022/05/04 07:58:14;;;;;;;;;44.00;34.00;;;;;14.92;53.43;101250.47;5036564;28;45714;-48
2022/05/04 08:06:12;;;;;;;;;40.80;32.40;;;;;15.32;52.53;101283.19;5005747;27;46035;-53
2022/05/04 08:08:38;;;;;;;;;46.80;34.80;;;;;15.42;52.88;101292.88;5018376;28;45544;-49
2022/05/04 08:11:04;;;;;;;;;42.80;34.20;;;;;15.49;52.77;101288.13;5029428;28;45567;-52
2022/05/04 08:13:29;;;;;;;;;45.75;35.50;;;;;15.54;52.21;101285.47;5031120;28;46882;-51
2022/05/04 08:15:55;;;;;;;;;41.00;32.50;;;;;15.54;52.31;101274.41;5035044;28;45515;-48
2022/05/04 08:18:21;;;;;;;;;44.00;36.50;;;;;15.70;52.10;101294.25;5035263;28;45402;-49
2022/05/04 08:20:47;;;;;;;;;39.25;32.50;;;;;15.72;52.34;101289.31;5033394;28;45358;-47
2022/05/04 08:23:12;;;;;;;;;44.75;36.25;;;;;15.72;52.03;101281.88;5066880;28;46368;-51
2022/05/04 08:25:38;;;;;;;;;40.00;33.50;;;;;15.71;52.14;101290.38;5034325;28;45849;-49
2022/05/04 08:28:04;;;;;;;;;41.50;33.00;;;;;15.67;52.23;101301.06;5033660;28;45386;-59
2022/05/04 08:30:29;;;;;;;;;46.00;37.00;;;;;15.67;51.94;101300.22;5034586;28;45412;-50
2022/05/04 08:32:55;;;;;;;;;45.75;37.00;;;;;15.68;52.18;101301.91;5033864;28;46061;-47
2022/05/04 08:35:20;;;;;;;;;47.00;37.25;;;;;15.72;52.08;101305.91;5067169;28;45371;-51
2022/05/04 08:37:46;;;;;;;;;43.00;34.00;;;;;15.69;52.15;101295.31;5034825;28;45351;-50
2022/05/04 08:40:12;;;;;;;;;47.75;36.00;;;;;15.70;52.00;101299.78;5035055;28;45307;-48
2022/05/04 08:42:40;;;;;;;;;41.50;35.25;;;;;15.81;51.80;101295.38;5035216;28;45468;-48
2022/05/04 08:45:06;;;;;;;;;45.60;37.80;;;;;15.75;52.11;101285.22;5033472;28;45828;-47
2022/05/04 08:47:32;;;;;;;;;53.40;38.40;;;;;15.84;51.60;101290.22;5050196;28;45467;-46
2022/05/04 08:49:57;;;;;;;;;48.25;38.00;;;;;15.72;52.25;101295.69;5034934;28;45684;-49
2022/05/04 08:52:23;;;;;;;;;46.50;37.75;;;;;15.65;52.11;101280.25;5034277;28;45302;-54
2022/05/04 08:54:51;;;;;;;;;48.50;35.00;;;;;15.74;51.53;101289.91;5033292;28;45410;-54
2022/05/04 08:57:17;;;;;;;;;42.00;32.20;;;;;15.91;51.69;101298.41;5033722;28;45391;-55
2022/05/04 08:59:43;;;;;;;;;35.25;32.00;;;;;15.98;51.81;101293.69;5034231;28;45496;-56
2022/05/04 09:02:10;;;;;;;;;40.80;33.40;;;;;16.03;51.29;101292.09;5034287;28;45480;-54
2022/05/04 09:04:35;;;;;;;;;38.20;33.00;;;;;16.07;51.52;101294.16;5021366;27;45398;-54
2022/05/04 09:07:01;;;;;;;;;39.50;32.00;;;;;16.03;51.42;101290.19;5002273;28;45575;-49
2022/05/04 09:09:27;;;;;;;;;40.50;34.75;;;;;16.06;51.35;101295.25;5032080;28;45433;-48
2022/05/04 09:11:54;;;;;;;;;47.80;34.40;;;;;16.10;50.99;101301.16;5034945;28;45369;-51
2022/05/04 09:14:20;;;;;;;;;37.20;33.20;;;;;15.95;50.85;101283.06;5034351;28;45280;-52
2022/05/04 09:16:46;;;;;;;;;43.80;34.80;;;;;16.25;50.80;101309.91;5034830;28;45276;-48
2022/05/04 09:19:13;;;;;;;;;44.00;34.40;;;;;16.06;50.72;101263.97;5034810;28;45584;-53
2022/05/04 09:21:39;;;;;;;;;34.40;31.80;;;;;16.40;50.05;101314.97;5032840;28;46017;-51
2022/05/04 09:24:05;;;;;;;;;41.50;33.75;;;;;16.27;50.17;101306.88;5034316;28;45370;-51
2022/05/04 09:26:31;;;;;;;;;42.60;32.00;;;;;16.05;50.36;101273.31;5034093;28;45339;-51
2022/05/04 09:29:01;;;;;;;;;42.25;32.25;;;;;16.19;50.28;101291.47;5034393;28;45353;-49
2022/05/04 09:31:28;;;;;;;;;42.80;34.60;;;;;16.32;50.39;101300.66;5033082;28;46640;-49
2022/05/04 09:33:57;;;;;;;;;44.00;36.60;;;;;16.31;50.57;101299.78;5032818;28;45457;-51
2022/05/04 09:45:10;;;;;;;;;27.80;26.80;;;;;16.43;49.74;101280.41;5064278;28;45650;-53
2022/05/04 09:47:45;;;;;;;;;31.20;25.60;;;;;16.29;49.60;101248.47;5037811;28;45370;-56
2022/05/04 09:50:14;;;;;;;;;34.00;29.80;;;;;16.38;49.22;101256.19;5037957;28;45412;-50
2022/05/04 09:52:48;;;;;;;;;31.80;28.40;;;;;16.48;48.68;101249.22;5037057;28;47042;-51
2022/05/04 09:55:21;;;;;;;;;33.20;29.60;;;;;16.79;48.92;101281.31;5038680;27;45405;-50
2022/05/04 09:57:47;;;;;;;;;36.20;30.80;;;;;16.92;48.18;101277.44;5068924;27;45426;-46
2022/05/04 10:00:14;;;;;;;;;37.75;29.50;;;;;16.91;47.53;101275.75;5032261;28;45452;-49
2022/05/04 10:02:40;;;;;;;;;41.20;32.60;;;;;16.92;48.12;101285.75;5036075;28;45568;-47
2022/05/04 10:05:07;;;;;;;;;32.40;28.00;;;;;17.03;47.34;101281.31;5028234;27;46248;-49
2022/05/04 10:07:37;;;;;;;;;34.00;28.80;;;;;17.07;46.95;101267.81;5007780;28;45495;-52
2022/05/04 10:10:07;;;;;;;;;34.40;30.40;;;;;17.08;47.30;101269.50;5015618;28;46083;-47
2022/05/04 10:12:42;;;;;;;;;36.80;30.60;;;;;17.10;47.26;101267.34;5060188;27;45962;-50
2022/05/04 10:15:11;;;;;;;;;32.40;27.00;;;;;17.10;47.19;101270.09;5048756;28;45357;-51
2022/05/04 10:18:05;;;;;;;;;36.80;31.20;;;;;17.22;47.35;101266.47;5048608;28;45406;-49
2022/05/04 10:20:31;;;;;;;;;31.40;26.00;;;;;17.40;46.87;101269.06;5037208;28;45373;-55
2022/05/04 10:22:59;;;;;;;;;37.75;33.00;;;;;17.57;46.65;101279.41;5036135;28;45295;-56
2022/05/04 10:25:26;;;;;;;;;26.20;24.80;;;;;17.75;45.89;101262.56;5036648;28;45602;-48
2022/05/04 10:28:02;;;;;;;;;36.60;30.20;;;;;17.73;45.27;101248.06;5036757;28;45584;-58
2022/05/04 10:30:30;;;;;;;;;30.00;25.60;;;;;17.86;44.33;101273.84;5051244;28;45540;-49
2022/05/04 10:32:57;;;;;;;;;33.20;27.80;;;;;17.77;44.90;101280.91;5036361;28;45571;-49
2022/05/04 10:35:32;;;;;;;;;16.40;14.40;;;;;17.70;45.18;101281.03;5051209;28;45318;-51
2022/05/04 10:37:58;;;;;;;;;34.00;29.40;;;;;17.82;45.17;101289.34;5036801;28;45546;-57
2022/05/04 10:40:36;;;;;;;;;32.50;28.25;;;;;17.91;45.23;101290.63;5037874;28;45559;-52
2022/05/04 10:43:05;;;;;;;;;34.00;31.60;;;;;17.87;45.28;101284.72;5035559;28;46136;-54
2022/05/04 10:45:31;;;;;;;;;36.00;29.80;;;;;17.99;45.28;101292.16;5034728;28;45444;-50
2022/05/04 10:48:18;;;;;;;;;35.60;30.20;;;;;18.11;44.71;101290.22;5036356;28;45341;-53
2022/05/04 10:50:56;;;;;;;;;34.20;28.40;;;;;18.18;44.23;101286.44;5037664;28;45310;-50
2022/05/04 10:53:35;;;;;;;;;30.40;25.40;;;;;18.20;44.43;101287.03;5037141;28;46387;-54
2022/05/04 10:56:04;;;;;;;;;29.80;27.40;;;;;18.25;44.03;101292.69;5069406;28;45720;-52
2022/05/04 10:58:31;;;;;;;;;32.60;29.00;;;;;18.34;44.40;101293.09;5036428;28;45363;-52
2022/05/04 11:01:12;;;;;;;;;31.80;29.60;;;;;18.47;43.92;101289.16;5037703;28;45331;-54
2022/05/04 11:03:49;;;;;;;;;30.60;26.20;;;;;18.45;43.74;101253.25;5037676;28;46266;-51
2022/05/04 11:06:28;;;;;;;;;28.60;24.60;;;;;18.69;44.05;101248.34;5022129;27;45421;-55
2022/05/04 11:08:56;;;;;;;;;32.60;26.60;;;;;18.90;42.82;101259.78;5054996;28;45408;-54
2022/05/04 11:11:22;;;;;;;;;27.00;24.00;;;;;19.15;42.19;101272.41;5031346;28;45565;-50
2022/05/04 11:13:48;;;;;;;;;25.60;23.40;;;;;19.22;42.36;101277.81;5056155;28;45384;-51
2022/05/04 11:16:13;;;;;;;;;24.00;22.75;;;;;19.37;41.67;101274.34;5057104;28;45402;-53
2022/05/04 11:18:39;;;;;;;;;24.75;19.25;;;;;19.39;41.25;101272.19;5056332;28;45467;-47
2022/05/04 11:21:10;;;;;;;;;23.75;20.00;;;;;19.38;41.66;101253.81;5057778;28;45290;-52
2022/05/04 11:23:37;;;;;;;;;24.60;23.20;;;;;19.45;41.44;101254.44;5039144;28;46584;-53
2022/05/04 11:26:02;;;;;;;;;26.20;21.60;;;;;19.19;41.50;101231.00;5057176;28;45362;-51
2022/05/04 11:28:28;;;;;;;;;25.00;23.25;;;;;19.11;41.72;101254.56;5056396;28;45568;-52
2022/05/04 11:30:53;;;;;;;;;20.50;20.00;;;;;19.11;41.78;101254.56;5057220;28;45397;-49
2022/05/04 11:33:19;;;;;;;;;24.25;17.00;;;;;19.18;40.70;101260.78;5041715;28;46741;-56
2022/05/04 11:35:51;;;;;;;;;14.75;13.00;;;;;19.11;40.87;101243.44;5036790;28;45433;-50
2022/05/04 11:38:18;;;;;;;;;15.20;13.20;;;;;19.26;39.62;101261.44;5037442;28;45407;-50
2022/05/04 11:40:45;;;;;;;;;14.20;12.60;;;;;19.14;39.58;101226.22;5037474;28;45505;-49